createdAt,value
2023-03-22T00:01:36.891Z,88.09
2023-03-22T00:04:04.418Z,86.09
2023-03-22T00:06:31.855Z,85.25
2023-03-22T00:08:59.529Z,85.41
2023-03-22T00:11:27.164Z,84.57
2023-03-22T00:13:54.898Z,84.75
2023-03-22T00:16:23.304Z,84.94
2023-03-22T00:18:53.883Z,84.84
2023-03-22T00:21:21.409Z,84.50
2023-03-22T00:23:48.926Z,84.57
2023-03-22T00:26:18.999Z,85.03
2023-03-22T00:28:46.664Z,83.89
2023-03-22T00:31:14.264Z,83.89
2023-03-22T00:33:41.800Z,84.29
2023-03-22T00:36:12.469Z,85.19
2023-03-22T00:38:44.399Z,84.48
2023-03-22T00:41:15.864Z,84.22
2023-03-22T00:43:43.548Z,84.44
2023-03-22T00:46:13.111Z,83.58
2023-03-22T00:48:41.217Z,83.81
2023-03-22T00:51:11.138Z,83.70
2023-03-22T00:53:41.890Z,83.67
2023-03-22T00:56:10.750Z,83.79
2023-03-22T00:58:38.231Z,83.55
2023-03-22T01:01:07.302Z,83.57
2023-03-22T01:03:34.981Z,83.70
2023-03-22T01:06:02.802Z,84.08
2023-03-22T01:08:33.120Z,83.80
2023-03-22T01:11:01.544Z,83.11
2023-03-22T01:13:29.859Z,82.84
2023-03-22T01:15:57.503Z,83.71
2023-03-22T01:18:24.956Z,83.43
2023-03-22T01:20:54.121Z,84.57
2023-03-22T01:23:21.799Z,83.92
2023-03-22T01:25:50.581Z,83.31
2023-03-22T01:28:18.026Z,83.10
2023-03-22T01:30:45.600Z,83.06
2023-03-22T01:33:13.148Z,83.27
2023-03-22T01:35:41.056Z,82.97
2023-03-22T01:38:08.657Z,83.07
2023-03-22T01:40:39.275Z,83.23
2023-03-22T01:43:14.234Z,83.11
2023-03-22T01:45:43.438Z,82.89
2023-03-22T01:48:16.679Z,82.78
2023-03-22T01:50:50.574Z,83.21
2023-03-22T01:53:23.507Z,82.81
2023-03-22T01:55:52.447Z,82.70
2023-03-22T01:58:21.372Z,82.57
2023-03-22T02:00:50.372Z,82.81
2023-03-22T02:03:25.713Z,82.67
2023-03-22T02:05:54.875Z,82.59
2023-03-22T02:08:22.343Z,82.32
2023-03-22T02:10:49.890Z,82.75
2023-03-22T02:13:38.838Z,82.57
2023-03-22T02:16:16.794Z,82.07
2023-03-22T02:18:57.093Z,82.58
2023-03-22T02:21:54.574Z,82.65
2023-03-22T02:24:47.726Z,82.64
2023-03-22T02:27:28.464Z,82.53
2023-03-22T02:30:05.009Z,82.73
2023-03-22T02:33:06.585Z,82.68
2023-03-22T02:35:47.270Z,83.26
2023-03-22T02:38:30.319Z,82.76
2023-03-22T02:41:09.058Z,82.96
2023-03-22T02:43:39.753Z,82.71
2023-03-22T02:46:12.285Z,83.03
2023-03-22T02:48:45.182Z,82.71
2023-03-22T02:51:19.933Z,83.04
2023-03-22T02:53:50.476Z,83.18
2023-03-22T02:56:24.293Z,83.13
2023-03-22T02:58:54.939Z,82.96
2023-03-22T03:01:29.251Z,82.71
2023-03-22T03:04:00.966Z,82.35
2023-03-22T03:06:33.230Z,82.71
2023-03-22T03:09:04.924Z,82.41
2023-03-22T03:11:34.110Z,83.07
2023-03-22T03:14:01.609Z,82.27
2023-03-22T03:16:36.466Z,82.15
2023-03-22T03:19:12.506Z,82.08
2023-03-22T03:21:51.095Z,82.66
2023-03-22T03:24:23.776Z,82.13
2023-03-22T03:26:59.731Z,82.25
2023-03-22T03:29:33.281Z,81.83
2023-03-22T03:32:08.132Z,81.96
2023-03-22T03:34:36.979Z,82.06
2023-03-22T03:37:08.621Z,81.74
2023-03-22T03:39:40.501Z,81.79
2023-03-22T03:42:14.272Z,81.96
2023-03-22T03:44:42.449Z,81.82
2023-03-22T03:47:11.326Z,82.02
2023-03-22T03:49:39.114Z,81.91
2023-03-22T03:52:06.870Z,81.42
2023-03-22T03:54:34.501Z,81.53
2023-03-22T03:57:03.972Z,81.23
2023-03-22T03:59:32.972Z,81.73
2023-03-22T04:02:00.486Z,81.48
2023-03-22T04:04:29.898Z,82.14
2023-03-22T04:06:59.532Z,81.73
2023-03-22T04:09:28.724Z,81.70
2023-03-22T04:11:57.255Z,81.70
2023-03-22T04:14:25.674Z,81.76
2023-03-22T04:16:54.928Z,82.00
2023-03-22T04:19:23.152Z,81.36
2023-03-22T04:21:53.037Z,81.64
2023-03-22T04:24:21.428Z,81.56
2023-03-22T04:26:48.919Z,81.56
2023-03-22T04:29:16.460Z,81.38
2023-03-22T04:31:44.117Z,81.70
2023-03-22T04:34:12.925Z,81.69
2023-03-22T04:36:41.057Z,81.84
2023-03-22T04:39:10.921Z,82.40
2023-03-22T04:41:38.760Z,82.00
2023-03-22T04:44:07.520Z,81.57
2023-03-22T04:46:36.584Z,81.21
2023-03-22T04:49:04.463Z,81.31
2023-03-22T04:51:33.384Z,81.88
2023-03-22T04:54:01.102Z,81.76
2023-03-22T04:56:28.540Z,81.68
2023-03-22T04:58:56.005Z,81.62
2023-03-22T05:01:23.484Z,81.83
2023-03-22T05:03:50.983Z,81.37
2023-03-22T05:06:18.651Z,81.41
2023-03-22T05:08:47.435Z,80.94
2023-03-22T05:11:17.474Z,81.31
2023-03-22T05:13:45.205Z,81.21
2023-03-22T05:16:12.868Z,81.54
2023-03-22T05:18:45.655Z,82.00
2023-03-22T05:21:15.284Z,81.37
2023-03-22T05:23:43.134Z,82.42
2023-03-22T05:26:15.966Z,81.46
2023-03-22T05:28:44.128Z,81.45
2023-03-22T05:31:14.582Z,81.40
2023-03-22T05:33:42.375Z,81.74
2023-03-22T05:36:11.583Z,81.54
2023-03-22T05:38:39.231Z,81.25
2023-03-22T05:41:07.290Z,81.69
2023-03-22T05:43:36.089Z,81.57
2023-03-22T05:46:06.289Z,81.68
2023-03-22T05:48:33.729Z,81.79
2023-03-22T05:51:03.290Z,82.06
2023-03-22T05:53:31.737Z,82.03
2023-03-22T05:56:00.591Z,81.86
2023-03-22T05:58:28.923Z,81.83
2023-03-22T06:01:00.881Z,82.00
2023-03-22T06:03:28.882Z,81.72
2023-03-22T06:05:56.348Z,81.96
2023-03-22T06:08:26.520Z,81.98
2023-03-22T06:10:54.829Z,82.42
2023-03-22T06:13:22.869Z,82.14
2023-03-22T06:15:50.333Z,84.52
2023-03-22T06:18:19.138Z,81.94
2023-03-22T06:20:46.683Z,83.11
2023-03-22T06:23:14.130Z,82.89
2023-03-22T06:25:41.580Z,83.02
2023-03-22T06:28:09.032Z,82.97
2023-03-22T06:30:36.528Z,82.30
2023-03-22T06:33:05.924Z,83.07
2023-03-22T06:35:34.899Z,85.09
2023-03-22T06:38:02.357Z,94.24
2023-03-22T06:40:30.237Z,91.43
2023-03-22T06:42:57.722Z,95.50
2023-03-22T06:45:25.134Z,99.11
2023-03-22T06:47:52.710Z,97.92
2023-03-22T06:50:20.209Z,100.00
2023-03-22T06:52:48.975Z,99.79
2023-03-22T06:55:16.500Z,100.00
2023-03-22T06:57:43.975Z,98.24
2023-03-22T07:00:12.775Z,93.73
2023-03-22T07:02:40.073Z,94.32
2023-03-22T07:05:08.197Z,93.84
2023-03-22T07:07:35.687Z,92.17
2023-03-22T07:10:04.995Z,92.85
2023-03-22T07:12:32.644Z,92.79
2023-03-22T07:15:00.269Z,93.42
2023-03-22T07:17:27.788Z,94.66
2023-03-22T07:19:55.190Z,92.68
2023-03-22T07:22:24.643Z,91.84
2023-03-22T07:24:57.696Z,93.36
2023-03-22T07:27:27.709Z,93.04
2023-03-22T07:29:55.180Z,91.57
2023-03-22T07:32:22.725Z,91.70
2023-03-22T07:34:50.252Z,91.27
2023-03-22T07:37:17.695Z,91.92
2023-03-22T07:39:45.252Z,90.13
2023-03-22T07:42:12.899Z,89.92
2023-03-22T07:44:41.963Z,89.61
2023-03-22T07:47:09.868Z,89.46
2023-03-22T07:49:37.560Z,88.86
2023-03-22T07:52:05.463Z,88.20
2023-03-22T07:54:34.489Z,88.09
2023-03-22T07:57:02.886Z,88.31
2023-03-22T07:59:31.199Z,87.20
2023-03-22T08:02:00.152Z,87.71
2023-03-22T08:04:27.694Z,86.94
2023-03-22T08:06:58.539Z,86.69
2023-03-22T08:09:26.344Z,86.83
2023-03-22T08:11:54.246Z,86.85
2023-03-22T08:14:27.486Z,84.13
2023-03-22T08:17:04.891Z,82.95
2023-03-22T08:19:33.012Z,83.70
2023-03-22T08:22:00.996Z,82.55
2023-03-22T08:24:28.606Z,83.92
2023-03-22T08:26:56.131Z,82.59
2023-03-22T08:29:23.742Z,81.49
2023-03-22T08:31:51.781Z,80.61
2023-03-22T08:34:20.800Z,81.63
2023-03-22T08:36:48.640Z,81.10
2023-03-22T08:39:16.142Z,81.65
2023-03-22T08:41:43.632Z,81.08
2023-03-22T08:44:11.281Z,80.37
2023-03-22T08:46:38.727Z,79.21
2023-03-22T08:49:06.192Z,78.26
2023-03-22T08:51:34.979Z,79.25
2023-03-22T08:54:04.362Z,78.74
2023-03-22T08:56:32.308Z,79.03
2023-03-22T08:58:59.783Z,78.38
2023-03-22T09:01:27.398Z,78.87
2023-03-22T09:03:54.918Z,77.91
2023-03-22T09:06:22.362Z,77.99
2023-03-22T09:08:52.125Z,77.56
2023-03-22T09:11:20.743Z,76.11
2023-03-22T09:13:48.128Z,76.87
2023-03-22T09:16:16.442Z,75.43
2023-03-22T09:18:44.579Z,75.54
2023-03-22T09:21:12.211Z,74.87
2023-03-22T09:23:40.392Z,73.99
2023-03-22T09:26:11.040Z,75.30
2023-03-22T09:28:38.649Z,74.36
2023-03-22T09:31:09.327Z,73.06
2023-03-22T09:33:38.417Z,72.54
2023-03-22T09:36:06.531Z,73.30
2023-03-22T09:38:35.335Z,70.88
2023-03-22T09:41:06.239Z,70.91
2023-03-22T09:43:37.720Z,72.10
2023-03-22T09:46:09.679Z,70.62
2023-03-22T09:48:41.819Z,68.19
2023-03-22T09:51:24.339Z,69.93
2023-03-22T09:53:51.771Z,67.47
2023-03-22T09:56:24.861Z,67.63
2023-03-22T09:59:00.882Z,67.46
2023-03-22T10:01:37.172Z,68.59
2023-03-22T10:04:26.126Z,68.97
2023-03-22T10:07:01.602Z,67.72
2023-03-22T10:09:33.598Z,69.62
2023-03-22T10:12:09.486Z,68.99
2023-03-22T10:14:41.836Z,65.91
2023-03-22T10:17:13.163Z,65.30
2023-03-22T10:19:50.532Z,64.29
2023-03-22T10:22:24.944Z,63.81
2023-03-22T10:24:54.365Z,64.02
2023-03-22T10:27:23.822Z,63.98
2023-03-22T10:29:57.745Z,63.81
2023-03-22T10:32:32.635Z,63.12
2023-03-22T10:35:00.205Z,62.86
2023-03-22T10:37:32.360Z,65.58
2023-03-22T10:40:07.031Z,66.47
2023-03-22T10:42:39.215Z,67.65
2023-03-22T10:45:13.085Z,62.36
2023-03-22T10:47:46.362Z,62.05
2023-03-22T10:50:18.770Z,62.38
2023-03-22T10:52:52.889Z,63.01
2023-03-22T10:55:20.322Z,61.28
2023-03-22T10:57:57.081Z,61.56
2023-03-22T11:00:28.644Z,64.42
2023-03-22T11:03:00.387Z,60.59
2023-03-22T11:05:30.198Z,58.82
2023-03-22T11:07:59.070Z,57.16
2023-03-22T11:10:29.430Z,60.98
2023-03-22T11:13:12.311Z,63.38
2023-03-22T11:15:43.135Z,64.17
2023-03-22T11:18:15.682Z,63.46
2023-03-22T11:20:53.229Z,60.47
2023-03-22T11:23:22.218Z,61.59
2023-03-22T11:25:51.611Z,59.90
2023-03-22T11:28:21.196Z,58.82
2023-03-22T11:31:06.002Z,59.53
2023-03-22T11:33:35.182Z,61.02
2023-03-22T11:36:04.579Z,60.73
2023-03-22T11:38:37.853Z,60.29
2023-03-22T11:41:08.720Z,56.18
2023-03-22T11:43:38.189Z,59.96
2023-03-22T11:46:09.375Z,60.93
2023-03-22T11:48:37.854Z,60.68
2023-03-22T11:51:09.751Z,57.36
2023-03-22T11:53:40.403Z,56.96
2023-03-22T11:56:11.257Z,56.52
2023-03-22T11:58:59.927Z,57.81
2023-03-22T12:01:45.317Z,58.90
2023-03-22T12:04:18.698Z,59.22
2023-03-22T12:06:46.231Z,58.23
2023-03-22T12:09:26.005Z,55.65
2023-03-22T12:11:57.152Z,57.49
2023-03-22T12:14:27.500Z,59.91
2023-03-22T12:17:00.753Z,53.44
2023-03-22T12:19:42.828Z,55.78
2023-03-22T12:22:13.802Z,56.46
2023-03-22T12:24:42.908Z,54.64
2023-03-22T12:27:18.543Z,55.20
2023-03-22T12:29:52.715Z,57.25
2023-03-22T12:32:27.109Z,58.57
2023-03-22T12:35:09.268Z,57.00
2023-03-22T12:37:47.197Z,57.28
2023-03-22T12:40:22.805Z,55.57
2023-03-22T12:43:00.238Z,54.95
2023-03-22T12:45:29.659Z,56.89
2023-03-22T12:48:04.759Z,55.15
2023-03-22T12:50:38.069Z,52.91
2023-03-22T12:53:06.545Z,55.03
2023-03-22T12:55:36.614Z,56.65
2023-03-22T12:58:07.431Z,57.59
2023-03-22T13:00:43.200Z,58.01
2023-03-22T13:03:24.327Z,56.49
2023-03-22T13:06:03.111Z,52.51
2023-03-22T13:09:04.491Z,56.89
2023-03-22T13:11:32.095Z,56.58
2023-03-22T13:13:59.627Z,55.62
2023-03-22T13:16:51.727Z,52.34
2023-03-22T13:19:31.384Z,51.79
2023-03-22T13:22:20.928Z,52.00
2023-03-22T13:25:07.038Z,56.04
2023-03-22T13:27:37.805Z,56.27
2023-03-22T13:30:15.147Z,55.29
2023-03-22T13:32:52.555Z,52.50
2023-03-22T13:35:28.191Z,52.23
2023-03-22T13:38:03.616Z,55.24
2023-03-22T13:40:36.579Z,54.87
2023-03-22T13:43:23.372Z,52.07
2023-03-22T13:46:13.701Z,53.74
2023-03-22T13:48:48.835Z,52.92
2023-03-22T13:51:22.510Z,53.22
2023-03-22T13:54:00.201Z,52.14
2023-03-22T13:56:52.675Z,51.46
2023-03-22T13:59:21.674Z,52.79
2023-03-22T14:01:52.378Z,52.01
2023-03-22T14:04:26.549Z,52.21
2023-03-22T14:06:59.842Z,52.10
2023-03-22T14:09:32.267Z,51.65
2023-03-22T14:12:06.324Z,52.61
2023-03-22T14:14:40.497Z,50.05
2023-03-22T14:17:17.632Z,52.77
2023-03-22T14:19:45.752Z,51.90
